Time;durP1;ratioP1;P1;durP2;ratioP2;P2;SDS_P1;SDS_P2;PMS_P1;PMS_P2;Temp;Humidity;BMP_temperature;BMP_pressure;BME280_temperature;BME280_humidity;BME280_pressure;Samples;Min_cycle;Max_cycle;Signal;HPM_P1;HPM_P2
2022/10/23 00:01:25;;;;;;;0.40;0.30;;;;;;;13.71;67.42;95898.13;5135248;27;20429;-56
2022/10/23 00:03:56;;;;;;;2.63;0.60;;;;;;;13.01;66.59;95805.22;5136903;27;20464;-57
2022/10/23 00:06:26;;;;;;;1.07;0.80;;;;;;;12.61;69.52;95896.56;5136721;27;20430;-56
2022/10/23 00:08:55;;;;;;;2.13;2.03;;;;;;;12.80;71.48;95900.25;5136556;27;20936;-56
2022/10/23 00:11:26;;;;;;;0.50;0.40;;;;;;;13.23;69.19;95901.53;5136495;27;20417;-56
2022/10/23 00:13:56;;;;;;;0.60;0.40;;;;;;;13.44;68.02;95891.59;5136464;27;21083;-56
2022/10/23 00:16:24;;;;;;;1.20;0.40;;;;;;;13.44;67.85;95881.75;5135957;27;20432;-56
2022/10/23 00:18:52;;;;;;;0.40;0.30;;;;;;;13.44;67.26;95871.09;5136693;27;20432;-56
2022/10/23 00:21:21;;;;;;;0.60;0.50;;;;;;;12.70;70.84;95873.66;5135352;27;20430;-56
2022/10/23 00:23:51;;;;;;;0.60;0.57;;;;;;;12.97;70.73;95884.00;5135510;27;20472;-56
2022/10/23 00:26:20;;;;;;;1.27;0.70;;;;;;;13.26;69.19;95880.47;5136296;27;21011;-56
2022/10/23 00:28:51;;;;;;;0.60;0.40;;;;;;;13.46;68.25;95884.91;5136243;27;20933;-56
2022/10/23 00:31:21;;;;;;;0.40;0.30;;;;;;;13.59;67.88;95888.88;5135452;27;20426;-56
2022/10/23 00:33:49;;;;;;;0.50;0.40;;;;;;;13.65;66.88;95850.47;5136114;27;20762;-56
2022/10/23 00:36:20;;;;;;;1.10;1.10;;;;;;;13.00;69.75;95881.63;5136031;27;20438;-56
2022/10/23 00:38:49;;;;;;;1.17;0.60;;;;;;;12.73;71.34;95857.97;5135729;27;20421;-56
2022/10/23 00:41:21;;;;;;;0.40;0.40;;;;;;;13.40;69.22;95879.91;5136302;27;20441;-57
2022/10/23 00:44:11;;;;;;;0.50;0.43;;;;;;;13.51;68.64;95879.56;5135904;27;20463;-56
2022/10/23 00:46:40;;;;;;;0.60;0.40;;;;;;;13.67;68.18;95878.44;5131662;27;20448;-56
2022/10/23 00:49:09;;;;;;;0.40;0.30;;;;;;;13.74;67.83;95870.94;5135686;27;20445;-57
2022/10/23 00:51:46;;;;;;;0.40;0.30;;;;;;;13.73;67.39;95872.03;5135752;27;20786;-55
2022/10/23 00:54:18;;;;;;;0.40;0.30;;;;;;;13.68;67.89;95869.38;5135620;27;20422;-57
2022/10/23 00:57:01;;;;;;;0.60;0.60;;;;;;;13.63;68.90;95874.75;5135449;27;21010;-56
2022/10/23 00:59:30;;;;;;;0.50;0.47;;;;;;;13.58;67.96;95866.78;5135534;27;20433;-57
2022/10/23 01:01:59;;;;;;;0.70;0.70;;;;;;;13.71;67.81;95860.06;5134940;27;20436;-57
2022/10/23 01:04:28;;;;;;;0.73;0.53;;;;;;;13.51;68.07;95876.13;5135718;27;20434;-56
2022/10/23 01:07:05;;;;;;;0.87;0.60;;;;;;;12.94;70.13;95868.56;5135474;27;20431;-57
2022/10/23 01:09:38;;;;;;;0.47;0.40;;;;;;;13.03;71.05;95865.09;5135747;27;20429;-56
2022/10/23 01:12:15;;;;;;;3.80;0.60;;;;;;;13.42;69.51;95867.91;5135034;27;20438;-56
2022/10/23 01:14:55;;;;;;;0.50;0.43;;;;;;;12.86;70.99;95856.63;5135693;27;20437;-56
2022/10/23 01:17:30;;;;;;;1.17;0.67;;;;;;;12.39;73.31;95859.63;5135878;27;20438;-56
2022/10/23 01:20:27;;;;;;;1.00;1.00;;;;;;;12.44;74.34;95864.16;5135869;27;20437;-56
2022/10/23 01:23:22;;;;;;;2.30;0.73;;;;;;;12.34;73.82;95851.66;5130681;27;20897;-56
2022/10/23 01:26:02;;;;;;;8.30;0.50;;;;;;;12.83;72.08;95865.13;5134808;27;20473;-56
2022/10/23 01:28:38;;;;;;;9.17;0.87;;;;;;;13.12;71.09;95860.03;5135360;27;20425;-56
2022/10/23 01:31:11;;;;;;;0.50;0.40;;;;;;;12.27;74.22;95856.44;5134866;27;20440;-56
2022/10/23 01:33:44;;;;;;;1.23;1.20;;;;;;;12.13;74.20;95843.94;5134863;27;20428;-56
2022/10/23 01:36:15;;;;;;;0.50;0.40;;;;;;;12.43;73.20;95860.69;5134963;27;20465;-56
2022/10/23 01:38:48;;;;;;;0.87;0.50;;;;;;;12.30;74.40;95863.06;5135186;27;20422;-56
2022/10/23 01:41:20;;;;;;;2.23;0.80;;;;;;;12.74;72.78;95866.78;5135102;27;20434;-57
2022/10/23 01:43:54;;;;;;;1.03;1.03;;;;;;;12.29;73.83;95840.22;5134650;27;20484;-56
2022/10/23 01:46:25;;;;;;;0.60;0.60;;;;;;;12.57;73.80;95860.94;5134692;27;20921;-55
2022/10/23 01:48:55;;;;;;;0.50;0.40;;;;;;;12.89;72.78;95863.28;5135091;27;20929;-55
2022/10/23 01:51:27;;;;;;;0.63;0.37;;;;;;;12.22;73.98;95821.88;5134645;27;20437;-56
2022/10/23 01:53:59;;;;;;;1.63;0.67;;;;;;;12.48;74.34;95866.00;5134642;27;20429;-56
2022/10/23 01:56:31;;;;;;;0.90;0.90;;;;;;;12.74;73.28;95854.28;5134797;27;20921;-56
2022/10/23 01:59:05;;;;;;;0.40;0.30;;;;;;;12.88;73.09;95859.81;5134533;27;20424;-56
2022/10/23 02:01:35;;;;;;;7.00;0.40;;;;;;;12.82;72.51;95852.13;5134245;27;20946;-55
2022/10/23 02:04:08;;;;;;;0.60;0.40;;;;;;;12.97;71.58;95844.09;5133640;27;20988;-56
2022/10/23 02:06:36;;;;;;;0.50;0.50;;;;;;;13.08;72.28;95846.47;5134319;27;20445;-56
2022/10/23 02:09:05;;;;;;;1.33;1.33;;;;;;;12.88;71.81;95840.38;5134648;27;20784;-56
2022/10/23 02:11:39;;;;;;;0.40;0.30;;;;;;;12.60;73.55;95841.78;5134540;27;20429;-56
2022/10/23 02:14:16;;;;;;;13.50;0.70;;;;;;;12.74;74.61;95854.28;5134519;27;20433;-55
2022/10/23 02:16:50;;;;;;;0.40;0.33;;;;;;;11.87;78.81;95851.09;5133865;27;20425;-55
2022/10/23 02:19:25;;;;;;;6.70;0.97;;;;;;;11.62;79.21;95843.06;5134697;27;20432;-56
2022/10/23 02:21:59;;;;;;;0.53;0.53;;;;;;;11.72;82.58;95873.13;5133461;27;20435;-56
2022/10/23 02:24:33;;;;;;;1.50;1.43;;;;;;;12.23;77.45;95851.91;5132893;27;21008;-56
2022/10/23 02:27:04;;;;;;;2.07;0.87;;;;;;;12.33;77.11;95866.00;5133966;27;20426;-56
2022/10/23 02:29:38;;;;;;;0.77;0.50;;;;;;;12.04;78.42;95870.25;5133821;27;20527;-56
2022/10/23 02:32:09;;;;;;;0.80;0.70;;;;;;;11.89;79.01;95886.19;5133745;27;20941;-56
2022/10/23 02:34:38;;;;;;;1.33;1.23;;;;;;;12.28;76.53;95883.81;5134079;27;20496;-56
2022/10/23 02:37:06;;;;;;;1.07;1.07;;;;;;;12.16;77.30;95862.81;5133748;27;20432;-56
2022/10/23 02:39:34;;;;;;;4.33;1.53;;;;;;;11.76;79.50;95865.44;5133654;27;20931;-56
2022/10/23 02:42:10;;;;;;;0.40;0.30;;;;;;;12.30;79.48;95860.41;5133640;27;20433;-56
2022/10/23 02:44:54;;;;;;;0.90;0.90;;;;;;;12.29;79.40;95864.16;5133832;27;20499;-55
2022/10/23 02:47:35;;;;;;;0.83;0.83;;;;;;;12.05;78.24;95853.25;5133467;27;20437;-56
2022/10/23 02:50:10;;;;;;;0.63;0.60;;;;;;;12.44;76.66;95862.28;5133710;27;20793;-56
2022/10/23 02:52:46;;;;;;;3.00;0.93;;;;;;;11.63;79.12;95863.25;5133342;27;20437;-56
2022/10/23 02:55:28;;;;;;;1.53;0.60;;;;;;;11.95;79.14;95863.84;5132753;27;20420;-55
2022/10/23 02:58:03;;;;;;;0.50;0.43;;;;;;;12.24;77.51;95874.78;5133667;27;20428;-56
2022/10/23 03:00:35;;;;;;;0.77;0.77;;;;;;;12.49;77.37;95872.91;5133123;27;20434;-56
2022/10/23 03:03:10;;;;;;;0.63;0.63;;;;;;;12.45;76.38;95869.19;5132539;27;20422;-56
2022/10/23 03:05:40;;;;;;;1.13;0.40;;;;;;;12.13;78.02;95875.84;5132412;27;20956;-56
2022/10/23 03:08:10;;;;;;;0.50;0.40;;;;;;;12.34;79.15;95883.56;5132956;27;20441;-56
2022/10/23 03:10:38;;;;;;;0.40;0.30;;;;;;;12.09;77.96;95876.34;5133079;27;20933;-56
2022/10/23 03:13:07;;;;;;;1.00;0.40;;;;;;;12.53;78.56;95881.94;5132770;27;20429;-56
2022/10/23 03:15:37;;;;;;;1.27;1.17;;;;;;;12.28;77.79;95881.97;5132731;27;20841;-55
2022/10/23 03:18:05;;;;;;;0.40;0.30;;;;;;;12.47;77.35;95884.88;5133088;27;20437;-56
2022/10/23 03:20:33;;;;;;;1.10;0.73;;;;;;;12.24;77.05;95870.28;5132746;27;20414;-57
2022/10/23 03:23:02;;;;;;;2.03;1.33;;;;;;;11.01;84.96;95877.34;5132899;27;20426;-56
2022/10/23 03:25:30;;;;;;;0.93;0.93;;;;;;;11.47;88.53;95865.06;5132474;27;20496;-57
2022/10/23 03:27:59;;;;;;;0.50;0.50;;;;;;;11.75;85.47;95875.25;5133184;27;20461;-55
2022/10/23 03:30:27;;;;;;;1.27;0.50;;;;;;;12.06;81.82;95868.94;5132594;27;20937;-56
2022/10/23 03:32:57;;;;;;;1.07;1.07;;;;;;;10.81;90.51;95874.56;5132430;27;20441;-55
2022/10/23 03:35:25;;;;;;;0.60;0.50;;;;;;;11.48;89.72;95875.41;5135547;27;20902;-56
2022/10/23 03:37:53;;;;;;;1.10;1.10;;;;;;;11.58;84.99;95852.63;5136813;27;20434;-56
2022/10/23 03:40:21;;;;;;;0.40;0.40;;;;;;;12.02;82.83;95875.81;5137127;27;20440;-56
2022/10/23 03:42:50;;;;;;;1.30;0.50;;;;;;;11.47;85.06;95879.13;5136714;27;20425;-56
2022/10/23 03:45:18;;;;;;;1.90;0.70;;;;;;;11.09;90.78;95898.06;5136888;27;20475;-57
2022/10/23 03:47:47;;;;;;;9.63;2.57;;;;;;;10.93;91.75;95893.72;5137029;27;20437;-56
2022/10/23 03:50:17;;;;;;;0.73;0.50;;;;;;;11.43;89.69;95903.81;5136669;27;20439;-55
2022/10/23 03:52:46;;;;;;;2.93;0.90;;;;;;;11.59;85.88;95891.34;5136487;27;20519;-56
2022/10/23 03:55:14;;;;;;;4.10;0.90;;;;;;;10.79;91.45;95890.75;5136574;27;20455;-56
2022/10/23 03:57:43;;;;;;;0.80;0.80;;;;;;;10.98;93.07;95890.34;5136874;27;20430;-55
2022/10/23 04:00:12;;;;;;;0.50;0.30;;;;;;;11.40;87.90;95886.53;5136423;27;20425;-55
2022/10/23 04:02:40;;;;;;;0.77;0.77;;;;;;;11.68;85.42;95889.81;5136524;27;20905;-55
2022/10/23 04:05:09;;;;;;;1.70;0.73;;;;;;;11.65;84.49;95890.31;5136330;27;20474;-56
2022/10/23 04:07:39;;;;;;;0.53;0.50;;;;;;;11.81;85.95;95882.19;5136332;27;20429;-55
2022/10/23 04:10:08;;;;;;;1.23;1.13;;;;;;;10.97;89.02;95811.81;5136598;27;20454;-56
2022/10/23 04:12:36;;;;;;;1.70;1.20;;;;;;;11.17;89.32;95899.44;5136317;27;20448;-56
2022/10/23 04:15:05;;;;;;;1.73;1.07;;;;;;;11.21;87.45;95884.59;5135965;27;20417;-56
2022/10/23 04:17:34;;;;;;;1.47;1.37;;;;;;;10.96;91.45;95890.56;5136478;27;20430;-56
2022/10/23 04:20:02;;;;;;;0.53;0.53;;;;;;;11.52;86.55;95904.09;5136163;27;20432;-55
2022/10/23 04:22:30;;;;;;;0.50;0.50;;;;;;;11.47;86.00;95910.19;5136292;27;20429;-56
2022/10/23 04:25:00;;;;;;;1.03;0.77;;;;;;;11.48;85.28;95909.91;5135951;27;20488;-56
2022/10/23 04:27:28;;;;;;;1.47;1.37;;;;;;;10.26;97.47;95919.25;5135881;27;20438;-56
2022/10/23 04:29:56;;;;;;;2.40;0.90;;;;;;;10.88;93.32;95914.91;5135791;27;20432;-55
2022/10/23 04:32:26;;;;;;;1.40;1.30;;;;;;;10.49;97.70;95918.91;5136072;27;20422;-55
2022/10/23 04:34:54;;;;;;;1.37;0.60;;;;;;;10.88;95.49;95922.88;5135963;27;20422;-56
2022/10/23 04:37:23;;;;;;;0.50;0.47;;;;;;;11.40;92.58;95902.47;5135747;27;20417;-56
2022/10/23 04:39:51;;;;;;;1.43;1.33;;;;;;;11.67;86.53;95904.94;5135934;27;20963;-56
2022/10/23 04:42:20;;;;;;;0.87;0.67;;;;;;;11.86;84.52;95908.75;5135580;27;20906;-56
2022/10/23 04:44:49;;;;;;;1.10;1.10;;;;;;;11.15;90.43;95898.91;5135841;27;20472;-56
2022/10/23 04:47:17;;;;;;;1.30;1.20;;;;;;;11.42;90.91;95910.16;5134595;27;20415;-55
2022/10/23 04:49:45;;;;;;;0.93;0.83;;;;;;;11.56;91.16;95902.53;5135784;27;20429;-55
2022/10/23 04:52:14;;;;;;;1.20;1.10;;;;;;;11.53;91.31;95903.03;5135447;27;20426;-55
2022/10/23 04:54:42;;;;;;;4.67;2.40;;;;;;;10.93;92.53;95896.38;5135299;27;20470;-56
2022/10/23 04:57:10;;;;;;;4.03;1.47;;;;;;;11.15;94.52;95912.16;5135315;27;20426;-56
2022/10/23 04:59:40;;;;;;;1.13;1.03;;;;;;;10.56;99.19;95888.47;5135130;27;20430;-56
2022/10/23 05:02:08;;;;;;;0.70;0.70;;;;;;;10.88;98.38;95895.59;5135093;27;20426;-56
2022/10/23 05:04:36;;;;;;;0.70;0.70;;;;;;;11.28;96.18;95901.09;5135408;27;20466;-57
2022/10/23 05:07:05;;;;;;;0.43;0.43;;;;;;;11.35;91.52;95881.22;5135239;27;20425;-56
2022/10/23 05:09:33;;;;;;;0.60;0.50;;;;;;;11.35;90.13;95904.31;5135361;27;20452;-56
2022/10/23 05:12:02;;;;;;;0.77;0.60;;;;;;;11.64;89.69;95900.16;5135254;27;20438;-56
2022/10/23 05:14:30;;;;;;;0.80;0.80;;;;;;;11.76;86.85;95900.75;5134708;27;20431;-56
2022/10/23 05:17:03;;;;;;;1.17;1.17;;;;;;;11.03;87.28;95808.13;5134795;27;20438;-56
2022/10/23 05:19:36;;;;;;;0.93;0.90;;;;;;;11.70;86.27;95914.28;5135241;27;20433;-56
2022/10/23 05:22:05;;;;;;;1.27;1.23;;;;;;;11.31;89.70;95911.16;5135067;27;20436;-55
2022/10/23 05:24:33;;;;;;;0.40;0.30;;;;;;;11.54;89.27;95915.25;5134534;27;21001;-55
2022/10/23 05:27:01;;;;;;;0.90;0.90;;;;;;;11.56;87.89;95921.09;5133877;27;20429;-56
2022/10/23 05:29:30;;;;;;;2.60;2.50;;;;;;;11.05;88.33;95923.53;5134070;27;20425;-56
2022/10/23 05:32:03;;;;;;;5.43;4.10;;;;;;;10.71;94.51;95925.69;5134409;27;20426;-56
2022/10/23 05:34:33;;;;;;;1.73;1.63;;;;;;;11.48;90.84;95928.50;5134895;27;20918;-55
2022/10/23 05:37:02;;;;;;;0.50;0.40;;;;;;;12.20;85.71;95932.97;5134639;27;20426;-55
2022/10/23 05:39:30;;;;;;;12.67;2.17;;;;;;;12.17;83.55;95940.69;5134135;27;20465;-56
2022/10/23 05:41:59;;;;;;;2.33;1.10;;;;;;;13.05;79.86;95944.66;5134805;27;20813;-55
2022/10/23 05:44:27;;;;;;;1.53;1.53;;;;;;;13.38;77.29;95949.41;5134411;27;20771;-56
2022/10/23 05:46:55;;;;;;;17.57;1.53;;;;;;;13.09;78.20;95948.41;5133644;27;20480;-56
2022/10/23 05:49:26;;;;;;;1.10;0.70;;;;;;;13.00;78.74;95947.34;5134053;27;20426;-57
2022/10/23 05:51:54;;;;;;;1.77;0.83;;;;;;;13.82;76.13;95942.31;5134242;27;20924;-57
2022/10/23 05:54:23;;;;;;;1.53;0.60;;;;;;;13.81;75.08;95930.03;5134577;27;20523;-57
2022/10/23 05:56:51;;;;;;;1.33;1.30;;;;;;;14.21;73.85;95934.38;5134184;27;20430;-57
2022/10/23 05:59:20;;;;;;;1.33;1.27;;;;;;;14.76;72.88;95922.50;5133381;27;20430;-58
2022/10/23 06:01:50;;;;;;;1.40;1.10;;;;;;;15.26;70.89;95923.88;5133879;27;20438;-57
2022/10/23 06:04:19;;;;;;;0.50;0.33;;;;;;;15.50;69.25;95915.91;5134187;27;20421;-57
2022/10/23 06:06:48;;;;;;;1.77;1.03;;;;;;;15.19;68.48;95902.84;5132687;27;21102;-59
2022/10/23 06:09:17;;;;;;;2.97;2.60;;;;;;;14.63;69.01;95947.94;5133371;27;20806;-61
2022/10/23 06:11:45;;;;;;;2.40;2.20;;;;;;;13.47;72.00;95961.09;5133591;27;20886;-60
2022/10/23 06:14:13;;;;;;;1.70;1.60;;;;;;;13.53;72.57;95965.34;5132796;27;20430;-61
2022/10/23 06:16:41;;;;;;;4.27;2.83;;;;;;;14.55;71.15;95977.88;5132546;27;20937;-60
2022/10/23 06:19:11;;;;;;;1.63;1.53;;;;;;;15.65;66.53;95971.84;5132352;27;20436;-60
2022/10/23 06:21:39;;;;;;;2.20;2.10;;;;;;;15.93;64.27;95965.63;5133042;27;20418;-60
2022/10/23 06:24:09;;;;;;;2.00;1.90;;;;;;;15.85;65.51;95975.06;5133063;27;20499;-60
2022/10/23 06:26:38;;;;;;;1.33;1.03;;;;;;;15.59;65.94;95987.13;5133505;27;20465;-60
2022/10/23 06:29:06;;;;;;;0.60;0.60;;;;;;;15.68;65.29;95961.38;5132419;27;20500;-60
2022/10/23 06:31:34;;;;;;;0.70;0.60;;;;;;;16.84;63.41;95970.50;5130590;27;20433;-60
2022/10/23 06:34:04;;;;;;;1.03;0.67;;;;;;;16.75;64.22;95958.84;5131862;27;20434;-61
2022/10/23 06:36:33;;;;;;;2.60;0.67;;;;;;;17.49;61.39;95957.81;5132133;27;20417;-61
2022/10/23 06:39:01;;;;;;;0.70;0.70;;;;;;;16.62;60.68;95814.28;5132174;27;20970;-61
2022/10/23 06:41:31;;;;;;;0.60;0.50;;;;;;;18.12;59.42;95955.22;5132349;27;20429;-60
2022/10/23 06:44:00;;;;;;;2.30;0.87;;;;;;;18.06;58.27;95907.38;5132857;27;20433;-59
2022/10/23 06:46:31;;;;;;;0.80;0.57;;;;;;;18.07;59.37;95960.72;5133487;27;20497;-58
2022/10/23 06:49:00;;;;;;;11.77;2.37;;;;;;;18.34;58.83;95957.19;5133479;27;20418;-57
2022/10/23 06:51:28;;;;;;;0.77;0.67;;;;;;;18.57;57.78;95956.13;5133667;27;20420;-57
2022/10/23 06:53:57;;;;;;;1.87;1.77;;;;;;;18.67;56.86;95947.06;5133286;27;20434;-57
2022/10/23 06:56:28;;;;;;;1.20;1.20;;;;;;;18.89;56.42;95950.56;5133332;27;20421;-55
2022/10/23 06:58:57;;;;;;;0.90;0.90;;;;;;;19.24;55.31;95951.53;5132927;27;20931;-56
2022/10/23 07:01:26;;;;;;;1.10;0.90;;;;;;;19.97;54.16;95948.22;5133151;27;20976;-56
2022/10/23 07:03:54;;;;;;;1.97;1.87;;;;;;;20.45;53.21;95958.94;5132946;27;20429;-56
2022/10/23 07:06:22;;;;;;;3.77;2.33;;;;;;;19.84;53.20;95910.66;5133099;27;20473;-56
2022/10/23 07:08:51;;;;;;;1.03;1.03;;;;;;;20.25;52.86;95944.19;5132370;27;20424;-55
2022/10/23 07:11:19;;;;;;;1.90;1.00;;;;;;;20.89;51.44;95960.53;5132932;27;20793;-55
2022/10/23 07:13:47;;;;;;;1.20;1.10;;;;;;;21.44;49.63;95941.72;5132877;27;20436;-57
2022/10/23 07:16:19;;;;;;;0.83;0.83;;;;;;;21.81;49.28;95945.53;5133219;27;20432;-55
2022/10/23 07:18:49;;;;;;;4.20;1.53;;;;;;;21.62;49.47;95947.84;5132785;27;20422;-54
2022/10/23 07:21:18;;;;;;;2.70;2.60;;;;;;;21.67;48.62;95929.56;5132743;27;20810;-54
2022/10/23 07:23:46;;;;;;;2.47;2.27;;;;;;;21.98;47.94;95907.69;5132792;27;20500;-54
2022/10/23 07:26:16;;;;;;;1.00;0.90;;;;;;;21.99;47.18;95931.66;5132436;27;20481;-53
2022/10/23 07:28:47;;;;;;;3.03;2.93;;;;;;;22.56;46.96;95936.53;5132702;27;20422;-54
2022/10/23 07:31:17;;;;;;;5.50;1.37;;;;;;;22.83;46.24;95937.91;5132806;27;20427;-53
2022/10/23 07:33:45;;;;;;;1.67;1.57;;;;;;;22.28;46.71;95947.06;5132472;27;20552;-53
2022/10/23 07:36:13;;;;;;;2.20;1.20;;;;;;;22.71;46.89;95912.44;5132615;27;20427;-53
2022/10/23 07:38:42;;;;;;;2.23;2.10;;;;;;;23.63;44.44;95925.66;5132516;27;20415;-53
2022/10/23 07:41:13;;;;;;;3.37;1.80;;;;;;;23.97;43.27;95908.94;5132955;27;20509;-53
2022/10/23 07:43:41;;;;;;;3.30;1.60;;;;;;;24.08;41.24;95879.53;5132613;27;20946;-53
2022/10/23 07:46:09;;;;;;;2.43;1.53;;;;;;;24.22;42.16;95915.94;5132305;27;20468;-53
2022/10/23 07:48:40;;;;;;;1.63;1.20;;;;;;;24.69;41.49;95893.69;5132873;27;20426;-53
2022/10/23 07:51:12;;;;;;;1.83;1.47;;;;;;;24.92;41.18;95895.53;5132789;27;20427;-52
2022/10/23 07:53:41;;;;;;;1.53;1.43;;;;;;;25.11;40.02;95860.41;5132499;27;20427;-52
2022/10/23 07:56:14;;;;;;;0.90;0.80;;;;;;;26.16;38.73;95885.09;5132578;27;20424;-53
2022/10/23 07:58:43;;;;;;;1.57;1.47;;;;;;;26.85;37.22;95873.34;5132733;27;20450;-52
2022/10/23 08:01:18;;;;;;;2.03;1.50;;;;;;;26.92;37.58;95868.03;5132649;27;20427;-52
2022/10/23 08:03:48;;;;;;;1.90;1.80;;;;;;;26.20;38.32;95865.00;5132530;27;20450;-52
2022/10/23 08:06:16;;;;;;;0.70;0.70;;;;;;;26.24;38.96;95849.56;5132463;27;20489;-53
2022/10/23 08:08:45;;;;;;;1.33;1.23;;;;;;;26.40;38.25;95884.84;5132254;27;20454;-52
2022/10/23 08:11:15;;;;;;;1.23;1.13;;;;;;;26.26;38.89;95877.16;5131950;27;20921;-52
2022/10/23 08:13:43;;;;;;;1.07;1.07;;;;;;;26.80;38.26;95882.59;5132371;27;20431;-53
2022/10/23 08:16:12;;;;;;;2.40;1.63;;;;;;;26.80;37.88;95879.06;5132170;27;20430;-53
2022/10/23 08:18:41;;;;;;;9.47;1.63;;;;;;;26.92;36.73;95878.91;5132112;27;20914;-53
2022/10/23 08:21:12;;;;;;;1.83;1.60;;;;;;;27.16;37.32;95886.78;5132741;27;20447;-53
2022/10/23 08:23:40;;;;;;;1.00;1.00;;;;;;;28.16;36.12;95885.34;5135397;27;20446;-53
2022/10/23 08:26:09;;;;;;;1.73;1.63;;;;;;;28.09;35.42;95876.28;5135648;27;21033;-53
2022/10/23 08:28:38;;;;;;;3.07;1.80;;;;;;;28.10;35.30;95878.66;5136095;27;20422;-53
2022/10/23 08:31:11;;;;;;;1.30;0.97;;;;;;;28.16;35.34;95873.66;5136089;27;20558;-53
2022/10/23 08:33:40;;;;;;;1.37;1.37;;;;;;;28.09;35.82;95873.56;5136080;27;20786;-53
2022/10/23 08:36:17;;;;;;;1.20;0.80;;;;;;;29.02;34.38;95849.06;5135856;27;20423;-53
2022/10/23 08:39:04;;;;;;;0.90;0.80;;;;;;;29.20;33.97;95869.13;5135768;27;20423;-53
2022/10/23 08:41:36;;;;;;;6.17;1.53;;;;;;;29.30;34.81;95869.25;5136002;27;20423;-53
2022/10/23 08:44:12;;;;;;;1.03;1.03;;;;;;;30.11;32.75;95850.00;5135607;27;20415;-53
2022/10/23 08:46:44;;;;;;;13.13;2.43;;;;;;;30.39;33.15;95855.66;5135563;27;20466;-53
2022/10/23 08:49:29;;;;;;;1.97;1.87;;;;;;;30.47;32.70;95820.91;5135546;27;20958;-53
2022/10/23 08:52:02;;;;;;;1.47;1.37;;;;;;;29.16;34.15;95849.97;5135819;27;20423;-53
2022/10/23 08:54:39;;;;;;;1.97;1.33;;;;;;;30.17;32.64;95843.81;5135551;27;20906;-53
2022/10/23 08:57:14;;;;;;;11.33;2.40;;;;;;;29.11;34.15;95831.22;5135495;27;20437;-53
2022/10/23 08:59:47;;;;;;;3.10;2.90;;;;;;;29.66;34.25;95856.69;5136056;27;20430;-53
2022/10/23 09:02:21;;;;;;;1.67;1.57;;;;;;;30.28;34.46;95832.16;5135479;27;20423;-53
2022/10/23 09:04:52;;;;;;;1.57;1.37;;;;;;;31.01;32.44;95852.81;5135205;27;20419;-53
2022/10/23 09:07:35;;;;;;;2.23;2.10;;;;;;;30.87;31.96;95847.25;5135474;27;20500;-53
2022/10/23 09:10:25;;;;;;;2.07;1.90;;;;;;;31.02;31.49;95846.94;5135207;27;20446;-54
2022/10/23 09:12:53;;;;;;;2.93;1.10;;;;;;;31.26;32.01;95843.47;5135498;27;20430;-53
2022/10/23 09:15:28;;;;;;;4.47;1.33;;;;;;;32.24;30.38;95835.63;5135122;27;20433;-54
2022/10/23 09:17:59;;;;;;;2.80;2.60;;;;;;;31.27;31.26;95839.56;5135043;27;20430;-53
2022/10/23 09:20:32;;;;;;;2.37;2.13;;;;;;;30.91;31.34;95796.06;5135024;27;20522;-54
2022/10/23 09:23:08;;;;;;;2.10;1.30;;;;;;;30.89;32.07;95831.25;5134487;27;20414;-54
2022/10/23 09:25:40;;;;;;;1.60;1.50;;;;;;;31.87;31.67;95825.13;5134550;27;20870;-54
2022/10/23 09:28:19;;;;;;;1.20;0.97;;;;;;;33.73;29.61;95817.22;5135052;27;20469;-54
2022/10/23 09:30:49;;;;;;;1.67;1.57;;;;;;;33.00;29.03;95814.56;5134808;27;20525;-54
2022/10/23 09:33:20;;;;;;;6.00;2.17;;;;;;;32.54;29.89;95820.28;5134842;27;20425;-54
2022/10/23 09:35:55;;;;;;;0.63;0.63;;;;;;;34.24;28.89;95808.09;5134675;27;20430;-54
2022/10/23 09:38:29;;;;;;;1.20;0.93;;;;;;;33.99;29.13;95802.06;5134520;27;20436;-54
2022/10/23 09:41:00;;;;;;;2.67;0.40;;;;;;;35.26;27.14;95798.56;5134780;27;20419;-54
2022/10/23 09:43:29;;;;;;;1.47;1.37;;;;;;;34.36;28.39;95797.34;5134872;27;20422;-54
2022/10/23 09:45:58;;;;;;;1.20;0.87;;;;;;;34.69;29.37;95787.53;5134439;27;20542;-55
2022/10/23 09:48:27;;;;;;;1.03;1.03;;;;;;;34.82;27.82;95791.28;5134383;27;20489;-54
2022/10/23 09:50:57;;;;;;;0.93;0.93;;;;;;;34.90;27.97;95781.75;5134411;27;20427;-54
2022/10/23 09:53:39;;;;;;;1.07;1.07;;;;;;;35.81;26.52;95783.50;5134398;27;20418;-54
2022/10/23 09:56:25;;;;;;;2.50;1.67;;;;;;;35.12;27.51;95762.19;5134550;27;20438;-53
2022/10/23 09:58:57;;;;;;;1.10;0.80;;;;;;;36.03;26.51;95779.19;5134332;27;20480;-53
2022/10/23 10:01:27;;;;;;;1.27;0.40;;;;;;;35.56;26.02;95770.16;5134231;27;20194;-53
2022/10/23 10:03:56;;;;;;;0.40;0.40;;;;;;;35.86;25.75;95761.72;5134504;27;20203;-54
2022/10/23 10:06:28;;;;;;;9.73;0.70;;;;;;;35.68;25.35;95756.53;5134022;27;20188;-54
2022/10/23 10:09:00;;;;;;;1.10;0.40;;;;;;;35.24;25.03;95747.81;5133991;27;20643;-55
2022/10/23 10:11:37;;;;;;;0.93;0.50;;;;;;;33.27;26.55;95756.34;5134331;27;20255;-54
2022/10/23 10:14:28;;;;;;;0.40;0.40;;;;;;;34.39;26.11;95748.94;5133915;27;20200;-54
2022/10/23 10:17:01;;;;;;;0.47;0.47;;;;;;;35.40;25.28;95720.34;5133738;27;20188;-54
2022/10/23 10:19:43;;;;;;;0.33;0.33;;;;;;;34.49;25.63;95748.81;5133618;27;20192;-54
2022/10/23 10:22:21;;;;;;;0.53;0.40;;;;;;;35.56;25.79;95739.81;5133613;27;20184;-54
2022/10/23 10:24:54;;;;;;;0.30;0.30;;;;;;;33.67;26.41;95726.16;5133579;27;20230;-54
2022/10/23 10:27:44;;;;;;;0.30;0.30;;;;;;;35.74;25.55;95726.50;5133718;27;20649;-54
2022/10/23 10:30:15;;;;;;;1.42;0.30;;;;;;;35.54;25.13;95722.91;5133703;27;20189;-55
2022/10/23 10:32:49;;;;;;;0.40;0.40;;;;;;;34.40;26.47;95731.25;5133890;27;20223;-55
2022/10/23 10:35:28;;;;;;;0.40;0.35;;;;;;;33.82;25.68;95715.78;5133467;27;20191;-54
2022/10/23 10:38:11;;;;;;;0.40;0.35;;;;;;;34.99;25.06;95720.63;5132944;27;20200;-55
2022/10/23 10:40:46;;;;;;;0.55;0.50;;;;;;;35.78;25.19;95709.84;5133482;27;20189;-55
2022/10/23 10:43:30;;;;;;;0.30;0.30;;;;;;;34.63;24.89;95709.34;5133232;27;20588;-55
2022/10/23 10:46:06;;;;;;;0.40;0.30;;;;;;;34.55;24.89;95707.09;5132818;27;20184;-54
2022/10/23 10:48:45;;;;;;;0.35;0.25;;;;;;;33.81;25.33;95701.25;5133555;27;20209;-54
2022/10/23 10:51:21;;;;;;;0.60;0.45;;;;;;;33.70;25.35;95697.06;5133827;27;20196;-54
2022/10/23 10:54:04;;;;;;;0.30;0.30;;;;;;;33.64;24.96;95704.19;5133257;27;20550;-55
2022/10/23 10:56:38;;;;;;;0.30;0.20;;;;;;;33.33;24.84;95692.28;5133528;27;20642;-55
2022/10/23 10:59:15;;;;;;;0.60;0.40;;;;;;;34.18;23.93;95699.69;5133429;27;20194;-54
2022/10/23 11:01:50;;;;;;;0.30;0.30;;;;;;;35.80;23.66;95690.94;5133168;27;20184;-55
2022/10/23 11:04:32;;;;;;;0.40;0.30;;;;;;;36.30;23.44;95694.28;5133101;27;20576;-56
2022/10/23 11:07:05;;;;;;;0.30;0.20;;;;;;;36.13;22.97;95682.38;5133389;27;20185;-55
2022/10/23 11:09:34;;;;;;;0.30;0.20;;;;;;;35.90;22.25;95676.91;5133297;27;20211;-53
2022/10/23 11:12:04;;;;;;;0.30;0.20;;;;;;;34.23;22.44;95657.97;5133246;27;20177;-54
2022/10/23 11:14:37;;;;;;;0.30;0.20;;;;;;;34.40;22.74;95679.75;5133123;27;20203;-55
2022/10/23 11:17:10;;;;;;;0.30;0.30;;;;;;;34.36;23.22;95675.44;5133153;27;20592;-57
2022/10/23 11:19:44;;;;;;;0.30;0.30;;;;;;;33.90;22.81;95645.00;5132898;27;20193;-54
2022/10/23 11:22:24;;;;;;;0.50;0.33;;;;;;;34.18;23.46;95669.44;5132955;27;20618;-54
2022/10/23 11:25:11;;;;;;;0.30;0.20;;;;;;;33.41;24.20;95660.81;5132555;27;20231;-54
2022/10/23 11:27:55;;;;;;;0.30;0.20;;;;;;;33.18;23.72;95655.13;5132615;27;20188;-55
2022/10/23 11:30:36;;;;;;;0.30;0.20;;;;;;;33.46;23.01;95654.09;5132746;27;20185;-54
2022/10/23 11:33:32;;;;;;;0.30;0.30;;;;;;;34.38;22.08;95631.81;5133065;27;20603;-54
2022/10/23 11:36:14;;;;;;;0.30;0.30;;;;;;;34.02;22.61;95642.47;5132614;27;20193;-54
2022/10/23 11:38:45;;;;;;;0.30;0.20;;;;;;;34.72;22.84;95643.50;5132713;27;20191;-54
2022/10/23 11:41:20;;;;;;;0.30;0.30;;;;;;;33.85;22.30;95644.25;5133033;27;20561;-54
2022/10/23 11:44:00;;;;;;;0.30;0.30;;;;;;;34.06;21.01;95603.94;5132768;27;20256;-54
2022/10/23 11:46:34;;;;;;;0.30;0.20;;;;;;;34.64;21.17;95641.25;5132465;27;20184;-54
2022/10/23 11:49:04;;;;;;;0.30;0.20;;;;;;;33.82;21.04;95639.59;5132824;27;20212;-54
2022/10/23 11:51:35;;;;;;;0.30;0.20;;;;;;;33.21;21.72;95643.34;5132673;27;20613;-57
2022/10/23 11:54:21;;;;;;;0.40;0.30;;;;;;;32.51;22.24;95585.06;5132603;27;20195;-55
2022/10/23 11:56:56;;;;;;;0.40;0.30;;;;;;;33.25;21.77;95635.84;5136283;27;20187;-54